• Join FlightAware (Why Join?)
  • Login
  • US Flag 
11:17AM EST


 

Airport Tracker/Info


-or-


 

Live Flight TrackerFlight Track Log ✈ SPK206 ✈ 14-Jun-2013 ✈ KPDK - KGSO

Flight Track Log - Related Links

Times and Time Zones

All times are in EDT time to prevent confusion due to time zone crossing. See the SPK206 flight status page for this flight to view local times or setup timezone preferences in your user account.

Time Position Orientation Groundspeed Altitude Reporting Facility
EDT Latitude Longitude Course Direction KTS MPH feet Rate Location/Type
11:26PM 33.9000 -84.2333 90° East 158 182 3,200  Level Atlanta TRACON
11:27PM 33.9000 -84.1833 90° East 164 189 4,300 1,260 Climbing Atlanta TRACON
11:28PM 33.9167 -84.1167 73° East 170 196 5,800 1,320 Climbing Atlanta TRACON
11:29PM 33.9167 -84.0667 90° East 177 204 7,100 1,200 Climbing Atlanta TRACON
11:30PM 33.9167 -84.0000 90° East 186 214 8,400 1,140 Climbing Atlanta TRACON
11:32PM 33.9236 -83.8561 87° East 194 223 10,900 780 Climbing Atlanta Center
11:33PM 33.9214 -83.7808 92° East 208 239 11,000  Climbing Atlanta Center
11:34PM 33.9253 -83.7008 87° East 228 262 11,000 120 Level Atlanta Center
11:35PM 33.9669 -83.6356 52° Northeast 228 262 11,300 660 Climbing Atlanta Center
11:36PM 34.0022 -83.5778 54° Northeast 228 262 12,400 1,140 Climbing Atlanta Center
11:37PM 34.0394 -83.5225 51° Northeast 221 254 13,600 1,140 Climbing Atlanta Center
11:38PM 34.0706 -83.4694 55° Northeast 198 228 14,700 1,020 Climbing Atlanta Center
11:39PM 34.1036 -83.4192 52° Northeast 198 228 15,700 1,020 Climbing Atlanta Center
11:40PM 34.1389 -83.3686 50° Northeast 198 228 16,800 960 Climbing Atlanta Center
11:41PM 34.1700 -83.3156 55° Northeast 203 234 17,700 900 Climbing Atlanta Center
11:42PM 34.2050 -83.2628 51° Northeast 198 228 18,600 900 Climbing Atlanta Center
11:43PM 34.2361 -83.2097 55° Northeast 198 228 19,500 900 Climbing Atlanta Center
11:44PM 34.2711 -83.1564 52° Northeast 198 228 20,500 960 Climbing Atlanta Center
11:45PM 34.3019 -83.1058 54° Northeast 193 222 21,500 900 Climbing Atlanta Center
11:46PM 34.3328 -83.0503 56° Northeast 188 216 22,400 720 Climbing Atlanta Center
11:47PM 34.3681 -83.0019 49° Northeast 188 216 23,000 300 Climbing Atlanta Center
11:48PM 34.4008 -82.9436 56° Northeast 193 222 23,000  Level Atlanta Center
11:49PM 34.4419 -82.8803 52° Northeast 220 253 23,000  Level Atlanta Center
11:50PM 34.4811 -82.8167 53° Northeast 227 261 23,000  Level Atlanta Center
11:51PM 34.5200 -82.7556 52° Northeast 232 267 23,000  Level Atlanta Center
11:52PM 34.5611 -82.6894 53° Northeast 226 260 23,000  Level Atlanta Center
11:53PM 34.6000 -82.6256 54° Northeast 226 260 23,000  Level Atlanta Center
11:54PM 34.6411 -82.5669 50° Northeast 232 267 23,000  Level Atlanta Center
11:55PM 34.6800 -82.5006 55° Northeast 232 267 23,000  Level Atlanta Center
11:56PM 34.7167 -82.4417 53° Northeast 232 267 23,000  Level Atlanta Center
11:57PM 34.7556 -82.3803 52° Northeast 227 261 23,000  Level Atlanta Center
11:58PM 34.7944 -82.3164 53° Northeast 227 261 23,000  Level Atlanta Center
11:59PM 34.8353 -82.2522 52° Northeast 227 261 23,000  Level Atlanta Center
12:00AM 34.8717 -82.1831 57° Northeast 233 268 23,000  Level Atlanta Center
12:01AM 34.9103 -82.1164 55° Northeast 233 268 23,000  Level Atlanta Center
12:02AM 34.9550 -82.0444 53° Northeast 238 274 23,000  Level Atlanta Center
12:03AM 34.9917 -81.9775 56° Northeast 238 274 23,000  Level Atlanta Center
12:04AM 35.0281 -81.9106 56° Northeast 238 274 23,000  Level Atlanta Center
12:05AM 35.0664 -81.8436 55° Northeast 243 280 23,000  Level Atlanta Center
12:06AM 35.1028 -81.7767 56° Northeast 243 280 23,000  Level Atlanta Center
12:07AM 35.1392 -81.7122 55° Northeast 243 280 23,000  Level Atlanta Center
12:08AM 35.1775 -81.6450 55° Northeast 243 280 23,000  Level Atlanta Center
12:09AM 35.2097 -81.5831 58° Northeast 243 280 23,000  Level Atlanta Center
12:10AM 35.2458 -81.5158 57° Northeast 243 280 23,000  Level Atlanta Center
12:11AM 35.2842 -81.4486 55° Northeast 243 280 23,000  Level Atlanta Center
12:12AM 35.3222 -81.3814 55° Northeast 243 280 23,000  Level Atlanta Center
12:13AM 35.3583 -81.3139 57° Northeast 243 280 23,000  Level Atlanta Center
12:14AM 35.3964 -81.2414 57° Northeast 243 280 23,000  Level Atlanta Center
12:15AM 35.4344 -81.1711 56° Northeast 243 280 23,000 -300 Level Atlanta Center
12:16AM 35.4744 -81.0983 56° Northeast 249 287 22,400 -840 Descending Atlanta Center
12:17AM 35.5183 -81.0203 55° Northeast 264 304 21,400 -1,140 Descending Atlanta Center
12:18AM 35.5625 -80.9419 55° Northeast 278 320 20,200 -1,200 Descending Atlanta Center
12:19AM 35.6042 -80.8639 57° Northeast 273 314 19,000 -1,200 Descending Atlanta Center
12:20AM 35.6481 -80.7856 55° Northeast 273 314 17,800 -1,200 Descending Atlanta Center
12:21AM 35.6936 -80.6992 57° Northeast 273 314 16,700 -1,200 Descending Atlanta Center
12:22AM 35.7353 -80.6208 57° Northeast 273 314 15,500 -1,200 Descending Atlanta Center
12:23AM 35.7769 -80.5450 56° Northeast 266 306 14,300 -1,200 Descending Atlanta Center
12:24AM 35.8167 -80.4689 57° Northeast 265 305 13,200 -660 Descending Atlanta Center
12:25AM 35.8561 -80.3956 56° Northeast 265 305 13,000 -840 Descending Atlanta Center
12:26AM 35.8956 -80.3244 56° Northeast 258 297 11,600 -1,740 Descending Atlanta Center
12:27AM 35.9331 -80.2483 59° Northeast 253 291 9,600 -2,040 Descending Atlanta Center
12:28AM 35.9683 -80.1775 58° Northeast 248 285 7,600 -2,100 Descending Atlanta Center
12:29AM 35.9933 -80.1094 66° East 234 269 5,400 -2,220 Descending Atlanta Center
12:31AM 36.0404 -80.0324 64° Northeast  Level FlightAware Approximate
12:38AM 36.1000 -79.9333 39° Northeast  Level FlightAware Approximate
12:39AM 36.1013 -79.9411 39° Northeast  Level Estimated